메인 페이지
METAR-TAF:

METAR-TAF

공항 :

베이루트, 레바논

위도: 33-49N, 경도: 035-29E, 고도: 29m

현재 날씨관측

예보는 59분 전, 00:00시(UTC)에 발표되었습니다.
남남동4kt
온도 17°C
습도 68%
기압 1019 hPa
시정: 7000m
고도 5000ft 상공 구름 보통
고도 8000ft 상공 구름 많음
약한비

METAR: OLBA 100000Z 16004KT 7000 -RA SCT050 BKN080 17/11 Q1019 NOSIG

시각: 02:59 (00:59 UTC)

예보

예보는 2 시간 59분 전, 22:00시(UTC)에 발표되었습니다.
예보 대상 시간: 10일 00시부터 11일 06시까지 (UTC)
남남서10kt, 순간 최대 풍속 20kt
시정: 8000m
고도 2400ft 상공 구름 보통
전환 중
10일 09시부터 10일 12시까지 (UTC)
남남서20kt, 순간 최대 풍속 35kt
고도 3000ft 상공 구름 많음
일시적
10일 09시부터 11일 06시까지 (UTC)
시정: 5000m

TAF: OLBA 092200Z 1000/1106 20010G20KT 8000 SCT024 BECMG 1009/1012 20020G35KT BKN030 TEMPO 1009/1106 5000 RA

4,000개 이상의 공항 관측 자료 및 예보 (METAR 및 TAF 보고).

지도상에서 검색 가능한 기상관측소가 노란 점과 빨간 점으로 표시되어 있습니다.

기상관측소 명을 보려면 표시 위로 마우스를 이동하세요.

날씨 관측과 예보를 보려면 클릭하세요.

지도 변경 : 확대하려면 엑스 표시가 있는 녹색 버튼, 축소하려면 빼기 표시가 있는 녹색 버튼, 다음 페이지의 지도를 보려면 녹색 화살표를 클릭하세요.


METAR-TAF: